Time;durP1;ratioP1;P1;durP2;ratioP2;P2;SDS_P1;SDS_P2;PMS_P1;PMS_P2;Temp;Humidity;BMP_temperature;BMP_pressure;BME280_temperature;BME280_humidity;BME280_pressure;Samples;Min_cycle;Max_cycle;Signal;HPM_P1;HPM_P2
2021/09/12 00:56:37;;;;;;;21.77;15.15;;;12.50;99.90;;;;;;5086903;28;20069;-77
2021/09/12 00:59:06;;;;;;;20.35;16.52;;;12.50;99.90;;;;;;5082716;28;20066;-78
2021/09/12 01:01:34;;;;;;;21.30;15.45;;;12.50;99.90;;;;;;5085236;28;20073;-77
2021/09/12 01:04:00;;;;;;;21.10;15.48;;;12.50;99.90;;;;;;5091046;28;20024;-78
2021/09/12 01:06:25;;;;;;;22.58;16.00;;;12.50;99.90;;;;;;5085644;28;20021;-78
2021/09/12 01:08:51;;;;;;;25.52;15.80;;;12.50;99.90;;;;;;5091225;28;20153;-78
2021/09/12 01:11:17;;;;;;;20.98;16.33;;;12.50;99.90;;;;;;5091825;28;20059;-78
2021/09/12 01:13:43;;;;;;;20.55;15.43;;;12.40;99.90;;;;;;5092489;28;20028;-78
2021/09/12 01:16:11;;;;;;;21.83;16.02;;;12.50;99.90;;;;;;5092467;28;20038;-78
2021/09/12 01:18:36;;;;;;;24.52;15.45;;;12.40;99.90;;;;;;5099036;28;20020;-78
2021/09/12 01:21:02;;;;;;;25.05;16.10;;;12.40;99.90;;;;;;5103646;28;20032;-77
2021/09/12 01:23:28;;;;;;;21.40;15.70;;;12.30;99.90;;;;;;5095027;28;20428;-77
2021/09/12 01:25:56;;;;;;;23.05;15.32;;;12.20;99.90;;;;;;5093699;28;20024;-78
2021/09/12 01:28:22;;;;;;;23.00;15.68;;;12.10;99.90;;;;;;5094931;28;20016;-78
2021/09/12 01:30:48;;;;;;;25.63;16.13;;;12.10;99.90;;;;;;5095140;28;20428;-77
2021/09/12 01:33:13;;;;;;;20.45;14.73;;;12.10;99.90;;;;;;5094681;28;20066;-78
2021/09/12 01:35:39;;;;;;;20.67;15.55;;;12.10;99.90;;;;;;5093460;28;20035;-77
2021/09/12 01:38:05;;;;;;;21.75;16.30;;;12.10;99.90;;;;;;5093082;28;20493;-78
2021/09/12 01:40:30;;;;;;;18.98;15.02;;;12.10;99.90;;;;;;5093603;28;20385;-77
2021/09/12 01:42:59;;;;;;;24.65;15.88;;;12.10;99.90;;;;;;5087842;28;20025;-77
2021/09/12 01:45:25;;;;;;;22.50;16.73;;;12.10;99.90;;;;;;5084224;28;20095;-77
2021/09/12 01:47:50;;;;;;;24.02;15.38;;;12.10;99.90;;;;;;5094487;28;20115;-77
2021/09/12 01:50:17;;;;;;;23.70;17.15;;;12.10;99.90;;;;;;5094693;28;20070;-77
2021/09/12 01:52:43;;;;;;;22.15;16.02;;;12.10;99.90;;;;;;5106402;28;20031;-78
2021/09/12 01:55:10;;;;;;;22.05;16.20;;;12.10;99.90;;;;;;5110662;28;20254;-77
2021/09/12 01:57:36;;;;;;;23.55;16.13;;;12.10;99.90;;;;;;5093486;28;20090;-77
2021/09/12 02:00:03;;;;;;;25.17;16.83;;;12.00;99.90;;;;;;5093133;28;20381;-78
2021/09/12 02:02:28;;;;;;;24.05;16.90;;;12.10;99.90;;;;;;5093568;28;20099;-78
2021/09/12 02:04:54;;;;;;;21.70;17.00;;;12.00;99.90;;;;;;5090329;28;20107;-78
2021/09/12 02:07:19;;;;;;;22.98;15.85;;;12.00;99.90;;;;;;5092607;28;20016;-78
2021/09/12 02:09:45;;;;;;;19.20;15.27;;;12.00;99.90;;;;;;5092226;28;20024;-78
2021/09/12 02:12:11;;;;;;;33.88;19.80;;;11.90;99.90;;;;;;5093534;28;20105;-78
2021/09/12 02:14:36;;;;;;;56.22;26.58;;;11.90;99.90;;;;;;5092517;28;20034;-77
2021/09/12 02:17:02;;;;;;;60.75;28.80;;;11.80;99.90;;;;;;5090439;28;20028;-78
2021/09/12 02:19:28;;;;;;;68.72;29.10;;;11.80;99.90;;;;;;5091685;28;20131;-77
2021/09/12 02:21:53;;;;;;;55.55;27.67;;;11.80;99.90;;;;;;5089613;28;20013;-77
2021/09/12 02:24:19;;;;;;;48.58;23.55;;;11.80;99.90;;;;;;5091557;28;20063;-77
2021/09/12 02:26:46;;;;;;;33.05;18.85;;;11.70;99.90;;;;;;5089283;28;20086;-78
2021/09/12 02:29:11;;;;;;;27.88;18.48;;;11.60;99.90;;;;;;5091360;28;20032;-77
2021/09/12 02:31:37;;;;;;;24.45;16.27;;;11.60;99.90;;;;;;5093563;28;20027;-78
2021/09/12 02:34:02;;;;;;;26.13;17.08;;;11.60;99.90;;;;;;5092954;28;20367;-77
2021/09/12 02:36:28;;;;;;;24.63;16.75;;;11.50;99.90;;;;;;5094064;28;20070;-77
2021/09/12 02:38:54;;;;;;;25.23;17.38;;;11.50;99.90;;;;;;5094621;28;20028;-78
2021/09/12 02:41:19;;;;;;;22.20;15.90;;;11.40;99.90;;;;;;5093965;28;20055;-78
2021/09/12 02:43:45;;;;;;;22.33;16.55;;;11.40;99.90;;;;;;5093476;28;20043;-78
2021/09/12 02:46:11;;;;;;;21.92;15.95;;;11.40;99.90;;;;;;5092635;28;20115;-78
2021/09/12 02:48:36;;;;;;;21.10;15.35;;;11.40;99.90;;;;;;5093355;28;20020;-78
2021/09/12 02:51:02;;;;;;;27.73;19.05;;;11.30;99.90;;;;;;5092252;28;20028;-78
2021/09/12 02:53:27;;;;;;;28.48;16.98;;;11.40;99.90;;;;;;5094611;28;20016;-79
2021/09/12 02:55:53;;;;;;;28.00;18.90;;;11.30;99.90;;;;;;5093520;28;20036;-77
2021/09/12 02:58:19;;;;;;;36.17;20.65;;;11.30;99.90;;;;;;5094609;28;20062;-77
2021/09/12 03:00:44;;;;;;;35.22;20.70;;;11.30;99.90;;;;;;5092236;28;20020;-77
2021/09/12 03:03:10;;;;;;;30.35;19.48;;;11.30;99.90;;;;;;5092913;28;20052;-79
2021/09/12 03:05:35;;;;;;;31.45;18.67;;;11.30;99.90;;;;;;5092129;28;20028;-78
2021/09/12 03:08:01;;;;;;;46.83;23.25;;;11.20;99.90;;;;;;5094253;28;20024;-78
2021/09/12 03:10:27;;;;;;;58.97;26.90;;;11.20;99.90;;;;;;5092067;28;20491;-78
2021/09/12 03:12:52;;;;;;;50.85;24.63;;;11.30;99.90;;;;;;5092846;28;20019;-78
2021/09/12 03:15:18;;;;;;;43.90;25.23;;;11.30;99.90;;;;;;5091292;28;20031;-77
2021/09/12 03:17:44;;;;;;;51.45;24.55;;;11.20;99.90;;;;;;5094143;28;20446;-77
2021/09/12 03:20:10;;;;;;;51.08;26.27;;;11.20;99.90;;;;;;5093095;28;20028;-77
2021/09/12 03:22:36;;;;;;;48.97;24.13;;;11.20;99.90;;;;;;5092798;28;20024;-77
2021/09/12 03:25:02;;;;;;;46.22;23.63;;;11.10;99.90;;;;;;5093390;28;20031;-77
2021/09/12 03:27:28;;;;;;;42.65;24.08;;;11.10;99.90;;;;;;5092697;28;20115;-78
2021/09/12 03:29:54;;;;;;;41.13;24.58;;;11.10;99.90;;;;;;5093175;28;20102;-77
2021/09/12 03:32:19;;;;;;;36.92;22.65;;;11.10;99.90;;;;;;5093798;28;20051;-78
2021/09/12 03:34:45;;;;;;;43.20;24.77;;;11.10;99.90;;;;;;5093439;28;20070;-77
2021/09/12 03:37:11;;;;;;;47.05;25.35;;;11.10;99.90;;;;;;5092360;28;20038;-77
2021/09/12 03:39:36;;;;;;;36.17;22.58;;;11.10;99.90;;;;;;5084191;28;20024;-77
2021/09/12 03:42:02;;;;;;;37.85;22.65;;;11.10;99.90;;;;;;5083321;28;20028;-78
2021/09/12 03:44:28;;;;;;;33.50;22.17;;;11.00;99.90;;;;;;5086081;28;20024;-77
2021/09/12 03:46:53;;;;;;;31.80;21.63;;;11.00;99.90;;;;;;5082124;28;20024;-78
2021/09/12 03:49:19;;;;;;;35.47;22.45;;;11.00;99.90;;;;;;5086129;28;20068;-78
2021/09/12 03:51:45;;;;;;;32.22;21.80;;;11.00;99.90;;;;;;5085644;28;20025;-77
2021/09/12 03:54:10;;;;;;;40.08;23.30;;;11.00;99.90;;;;;;5083961;28;20030;-78
2021/09/12 03:56:36;;;;;;;34.75;21.02;;;11.00;99.90;;;;;;5086618;28;20123;-78
2021/09/12 03:59:02;;;;;;;34.13;21.52;;;10.90;99.90;;;;;;5087353;28;20385;-77
2021/09/12 04:01:27;;;;;;;29.08;19.05;;;10.90;99.90;;;;;;5085077;28;20089;-77
2021/09/12 04:03:53;;;;;;;27.98;16.90;;;10.90;99.90;;;;;;5083468;28;20016;-77
2021/09/12 04:06:19;;;;;;;24.80;15.90;;;10.80;99.90;;;;;;5087953;28;20032;-77
2021/09/12 04:08:44;;;;;;;25.05;16.30;;;10.80;99.90;;;;;;5086615;28;20573;-78
2021/09/12 04:11:10;;;;;;;20.85;14.38;;;10.70;99.90;;;;;;5086352;28;20388;-78
2021/09/12 04:13:35;;;;;;;25.60;16.92;;;10.70;99.90;;;;;;5081948;28;20016;-78
2021/09/12 04:16:01;;;;;;;25.20;17.90;;;10.60;99.90;;;;;;5084636;28;20093;-78
2021/09/12 04:18:27;;;;;;;29.23;18.88;;;10.60;99.90;;;;;;5083455;28;20024;-78
2021/09/12 04:20:52;;;;;;;27.30;17.35;;;10.60;99.90;;;;;;5089375;28;20028;-78
2021/09/12 04:23:18;;;;;;;23.80;16.35;;;10.60;99.90;;;;;;5083188;28;20035;-77
2021/09/12 04:25:44;;;;;;;27.20;17.35;;;10.60;99.90;;;;;;5083232;28;20119;-77
2021/09/12 04:28:09;;;;;;;36.30;21.40;;;10.60;99.90;;;;;;5081570;28;20038;-78
2021/09/12 04:30:35;;;;;;;40.83;22.67;;;10.60;99.90;;;;;;5087201;28;20370;-77
2021/09/12 04:33:00;;;;;;;31.38;18.42;;;10.60;99.90;;;;;;5077416;28;20049;-78
2021/09/12 04:35:26;;;;;;;22.77;16.13;;;10.60;99.90;;;;;;5084946;28;20054;-77
2021/09/12 04:37:52;;;;;;;24.65;16.17;;;10.60;99.90;;;;;;5084377;28;20028;-77
2021/09/12 04:40:17;;;;;;;24.27;15.05;;;10.50;99.90;;;;;;5083447;28;20068;-77
2021/09/12 04:42:43;;;;;;;40.05;22.77;;;10.50;99.90;;;;;;5092440;28;20016;-77
2021/09/12 04:45:09;;;;;;;43.13;24.33;;;10.60;99.90;;;;;;5076920;28;20032;-78
2021/09/12 04:47:35;;;;;;;53.88;29.23;;;10.50;99.90;;;;;;5092640;28;20404;-78
2021/09/12 04:50:00;;;;;;;49.30;28.77;;;10.60;99.90;;;;;;5090798;28;20035;-77
2021/09/12 04:52:27;;;;;;;41.53;28.50;;;10.50;99.90;;;;;;5095713;28;20114;-77
2021/09/12 04:54:52;;;;;;;43.80;25.90;;;10.60;99.90;;;;;;5096048;28;20013;-77
2021/09/12 04:57:18;;;;;;;39.90;24.13;;;10.70;99.90;;;;;;5095550;28;20036;-77
2021/09/12 04:59:43;;;;;;;38.58;23.25;;;10.60;99.90;;;;;;5095431;28;20024;-77
2021/09/12 05:02:09;;;;;;;31.13;21.23;;;10.70;99.90;;;;;;5095900;28;20036;-77
2021/09/12 05:04:35;;;;;;;24.73;18.77;;;10.60;99.90;;;;;;5096131;28;20024;-78
2021/09/12 05:07:00;;;;;;;20.48;14.85;;;10.70;99.90;;;;;;5092876;28;20020;-77
2021/09/12 05:09:26;;;;;;;18.45;14.15;;;10.70;99.90;;;;;;5095123;28;20483;-77
2021/09/12 05:11:51;;;;;;;22.35;16.38;;;10.80;99.90;;;;;;5095457;28;20431;-78
2021/09/12 05:14:17;;;;;;;24.45;18.73;;;10.90;99.90;;;;;;5095093;28;20030;-78
2021/09/12 05:16:43;;;;;;;37.22;20.73;;;11.00;99.90;;;;;;5095291;28;20039;-77
2021/09/12 05:19:08;;;;;;;30.05;20.45;;;11.00;99.90;;;;;;5095707;28;20024;-78
2021/09/12 05:21:34;;;;;;;27.55;19.88;;;11.10;99.90;;;;;;5094684;28;20027;-78
2021/09/12 05:23:59;;;;;;;25.40;17.80;;;11.20;99.90;;;;;;5094302;28;20104;-79
2021/09/12 05:26:25;;;;;;;24.17;18.67;;;11.40;99.90;;;;;;5093524;28;20027;-78
2021/09/12 05:28:51;;;;;;;24.95;19.00;;;11.50;99.90;;;;;;5095095;28;20023;-78
2021/09/12 05:31:17;;;;;;;31.45;20.75;;;11.60;99.90;;;;;;5092554;28;20375;-78
2021/09/12 05:33:43;;;;;;;30.88;22.23;;;11.80;99.90;;;;;;5091281;28;20016;-78
2021/09/12 05:36:08;;;;;;;29.85;21.98;;;12.00;99.90;;;;;;5091848;28;20617;-78
2021/09/12 05:38:34;;;;;;;27.42;21.52;;;12.10;99.90;;;;;;5092751;28;20020;-78
2021/09/12 05:41:00;;;;;;;30.25;21.17;;;12.30;99.90;;;;;;5092533;28;20024;-78
2021/09/12 05:43:26;;;;;;;32.10;22.60;;;12.50;99.90;;;;;;5093657;28;20028;-78
2021/09/12 05:45:51;;;;;;;27.48;21.38;;;12.80;99.90;;;;;;5090393;28;20323;-78
2021/09/12 05:48:17;;;;;;;28.77;21.27;;;13.00;99.90;;;;;;5092900;28;20035;-78
2021/09/12 05:50:43;;;;;;;31.52;21.90;;;13.20;99.90;;;;;;5093610;28;20084;-78
2021/09/12 05:53:09;;;;;;;28.92;22.77;;;13.50;99.90;;;;;;5094033;28;20115;-78
2021/09/12 05:55:36;;;;;;;31.77;23.45;;;13.70;99.90;;;;;;5093096;28;20036;-78
2021/09/12 05:58:02;;;;;;;30.67;22.95;;;14.00;99.90;;;;;;5094068;28;20028;-78
2021/09/12 06:00:28;;;;;;;37.28;25.83;;;14.30;99.90;;;;;;5092553;28;20496;-78
2021/09/12 06:02:53;;;;;;;40.45;28.88;;;14.50;99.90;;;;;;5091215;28;20020;-78
2021/09/12 06:05:19;;;;;;;43.17;28.38;;;14.70;99.90;;;;;;5092729;28;20024;-78
2021/09/12 06:07:44;;;;;;;42.08;27.23;;;14.90;99.90;;;;;;5091478;28;20509;-78
2021/09/12 06:10:11;;;;;;;36.55;26.98;;;14.90;99.90;;;;;;5093014;28;20102;-78
2021/09/12 06:12:36;;;;;;;35.33;26.17;;;15.00;99.90;;;;;;5093284;28;20012;-78
2021/09/12 06:15:03;;;;;;;40.25;28.83;;;15.10;99.90;;;;;;5093532;28;20027;-78
2021/09/12 06:17:29;;;;;;;43.53;29.77;;;15.20;99.90;;;;;;5092838;28;20040;-78
2021/09/12 06:19:55;;;;;;;42.20;28.33;;;15.20;99.90;;;;;;5092137;28;20094;-78
2021/09/12 06:22:20;;;;;;;38.85;28.10;;;15.20;99.90;;;;;;5092928;28;20434;-78
2021/09/12 06:24:46;;;;;;;37.97;27.30;;;15.20;99.90;;;;;;5087434;28;20473;-78
2021/09/12 06:27:12;;;;;;;39.13;28.85;;;15.30;99.90;;;;;;5094246;28;20035;-79
2021/09/12 06:29:38;;;;;;;42.47;30.33;;;15.30;99.90;;;;;;5093530;28;20020;-78
2021/09/12 06:32:04;;;;;;;43.80;29.95;;;15.40;99.90;;;;;;5093286;28;20031;-78
2021/09/12 06:34:29;;;;;;;40.65;31.63;;;15.40;99.90;;;;;;5089590;28;20032;-78
2021/09/12 06:36:56;;;;;;;43.70;30.63;;;15.50;99.90;;;;;;5093078;28;20063;-78
2021/09/12 06:39:22;;;;;;;48.05;32.53;;;15.60;99.90;;;;;;5092367;28;20048;-78
2021/09/12 06:41:48;;;;;;;46.15;32.40;;;15.60;99.90;;;;;;5093128;28;20494;-78
2021/09/12 06:44:14;;;;;;;42.35;31.80;;;15.60;99.90;;;;;;5092483;28;20067;-78
2021/09/12 06:46:40;;;;;;;43.50;31.88;;;15.70;99.90;;;;;;5091206;28;20523;-78
2021/09/12 06:49:05;;;;;;;45.17;33.78;;;15.70;99.90;;;;;;5089307;28;20149;-78
2021/09/12 06:51:31;;;;;;;47.70;32.75;;;15.70;99.90;;;;;;5091216;28;20039;-78
2021/09/12 06:53:57;;;;;;;45.90;33.42;;;15.70;99.90;;;;;;5088136;28;20035;-79
2021/09/12 06:56:23;;;;;;;47.58;32.53;;;15.70;99.90;;;;;;5091263;28;20032;-78
2021/09/12 06:58:48;;;;;;;44.15;32.15;;;16.00;99.90;;;;;;5091257;28;20490;-78
2021/09/12 07:01:15;;;;;;;39.03;28.20;;;16.20;99.90;;;;;;5091221;28;20040;-78
2021/09/12 07:03:40;;;;;;;45.30;32.13;;;16.50;99.90;;;;;;5086704;28;20026;-79
2021/09/12 07:06:06;;;;;;;51.30;36.33;;;16.80;99.90;;;;;;5092144;28;20028;-78
2021/09/12 07:08:32;;;;;;;51.33;37.90;;;17.00;99.90;;;;;;5088323;28;20070;-78
2021/09/12 07:10:57;;;;;;;57.15;38.17;;;17.20;99.90;;;;;;5081946;28;20032;-78
2021/09/12 07:13:23;;;;;;;49.40;35.83;;;17.40;99.90;;;;;;5092309;28;20016;-78
2021/09/12 07:15:49;;;;;;;52.90;37.33;;;17.60;99.90;;;;;;5088286;28;20039;-79
2021/09/12 07:18:14;;;;;;;48.33;34.28;;;17.70;99.90;;;;;;5091331;28;20603;-79
2021/09/12 07:20:40;;;;;;;56.17;35.50;;;17.70;99.90;;;;;;5092620;28;20066;-78
2021/09/12 07:23:06;;;;;;;52.42;33.08;;;17.90;99.90;;;;;;5091862;28;20104;-79
2021/09/12 07:25:32;;;;;;;48.47;31.80;;;18.10;99.90;;;;;;5085068;28;20032;-78
2021/09/12 07:27:57;;;;;;;44.22;31.17;;;18.20;99.90;;;;;;5093014;28;20363;-78
2021/09/12 07:30:23;;;;;;;57.25;35.58;;;18.40;99.90;;;;;;5089949;28;20473;-78
2021/09/12 07:32:50;;;;;;;56.67;33.90;;;18.70;99.90;;;;;;5112744;28;20526;-79
2021/09/12 07:35:16;;;;;;;50.00;31.50;;;18.90;99.90;;;;;;5100272;28;20020;-79
2021/09/12 07:37:42;;;;;;;46.30;33.50;;;19.10;99.90;;;;;;5077939;28;20040;-80
2021/09/12 07:40:08;;;;;;;51.42;32.33;;;19.30;99.90;;;;;;5074937;28;20070;-79
2021/09/12 07:42:33;;;;;;;46.80;31.27;;;19.50;99.90;;;;;;5092075;28;20043;-79
2021/09/12 07:44:59;;;;;;;46.58;30.85;;;19.70;99.90;;;;;;5085767;28;20020;-78
2021/09/12 07:47:24;;;;;;;36.90;27.65;;;20.00;99.90;;;;;;5091599;28;20397;-79
2021/09/12 07:49:50;;;;;;;36.30;26.65;;;20.10;99.90;;;;;;5077779;28;20109;-79
2021/09/12 07:52:16;;;;;;;30.75;24.30;;;20.20;99.90;;;;;;5093327;28;20107;-79
2021/09/12 07:54:41;;;;;;;28.73;22.33;;;20.20;99.90;;;;;;5079944;28;20031;-79
2021/09/12 07:57:07;;;;;;;27.90;21.30;;;20.30;99.90;;;;;;5092690;28;20047;-79
2021/09/12 07:59:32;;;;;;;31.55;22.40;;;20.40;99.90;;;;;;5090782;28;20020;-79
2021/09/12 08:01:58;;;;;;;30.25;22.13;;;20.40;99.90;;;;;;5091207;28;20116;-79
2021/09/12 08:04:24;;;;;;;30.70;22.45;;;20.50;99.90;;;;;;5092264;28;20102;-79
2021/09/12 08:06:49;;;;;;;27.60;20.20;;;20.50;99.90;;;;;;5091509;28;20052;-79
2021/09/12 08:09:15;;;;;;;29.20;21.15;;;20.60;99.90;;;;;;5091760;28;20463;-79
2021/09/12 08:11:41;;;;;;;30.52;20.48;;;20.60;99.90;;;;;;5090625;28;20109;-79
2021/09/12 08:14:07;;;;;;;25.90;18.00;;;20.60;99.90;;;;;;5090814;28;20024;-79
2021/09/12 08:16:32;;;;;;;29.88;20.65;;;20.70;99.90;;;;;;5092085;28;20066;-79
2021/09/12 08:18:58;;;;;;;29.83;20.42;;;20.80;99.90;;;;;;5091298;28;20472;-79
2021/09/12 08:21:24;;;;;;;27.02;20.73;;;20.90;99.90;;;;;;5090377;28;20016;-79
2021/09/12 08:23:49;;;;;;;29.95;21.15;;;21.10;99.90;;;;;;5087421;28;20036;-80
2021/09/12 08:26:15;;;;;;;24.20;19.65;;;21.20;99.90;;;;;;5090609;28;20193;-80
2021/09/12 08:28:41;;;;;;;29.17;19.60;;;21.20;99.90;;;;;;5086156;28;20093;-80
2021/09/12 08:31:06;;;;;;;31.95;19.85;;;21.30;99.90;;;;;;5077807;28;20023;-80
2021/09/12 08:33:32;;;;;;;22.67;17.23;;;21.30;99.90;;;;;;5088830;28;20412;-80
2021/09/12 08:35:58;;;;;;;23.58;16.10;;;21.30;99.90;;;;;;5088035;28;20042;-80
2021/09/12 08:38:23;;;;;;;20.98;16.42;;;21.20;99.90;;;;;;5088918;28;20232;-78
2021/09/12 08:40:56;;;;;;;21.23;16.80;;;21.20;99.90;;;;;;5087008;28;20103;-79
2021/09/12 08:43:21;;;;;;;;;;;21.30;99.90;;;;;;5090284;28;20020;-79
2021/09/12 08:45:48;;;;;;;21.88;15.98;;;21.30;99.90;;;;;;5089519;28;20269;-79
2021/09/12 08:48:14;;;;;;;18.77;15.63;;;21.40;99.90;;;;;;5091437;28;20012;-79
2021/09/12 08:50:40;;;;;;;23.90;16.67;;;21.60;99.90;;;;;;5090745;28;20034;-77
2021/09/12 08:53:06;;;;;;;23.48;16.00;;;21.60;99.90;;;;;;5090637;28;20016;-77
2021/09/12 08:55:31;;;;;;;25.17;16.83;;;21.60;99.90;;;;;;5088185;28;20040;-77
2021/09/12 08:57:59;;;;;;;22.38;15.73;;;21.80;99.90;;;;;;5090324;28;20026;-77
2021/09/12 09:00:26;;;;;;;17.20;14.60;;;21.90;99.90;;;;;;5091440;28;20373;-77
2021/09/12 09:03:05;;;;;;;18.65;14.13;;;22.10;99.90;;;;;;5091135;28;20070;-78
2021/09/12 09:05:35;;;;;;;20.10;14.07;;;22.10;99.90;;;;;;5090543;28;20085;-77
2021/09/12 09:08:06;;;;;;;16.92;13.25;;;22.20;99.90;;;;;;5092547;28;20099;-77
2021/09/12 09:10:49;;;;;;;18.08;11.90;;;22.30;99.90;;;;;;5090361;28;20381;-77
2021/09/12 09:13:26;;;;;;;11.93;10.70;;;22.40;99.90;;;;;;5088265;28;20039;-77
2021/09/12 09:15:52;;;;;;;13.68;11.18;;;22.50;99.90;;;;;;5085987;28;20036;-77
2021/09/12 09:18:32;;;;;;;17.38;10.75;;;22.60;99.90;;;;;;5080251;28;20073;-77
2021/09/12 09:20:59;;;;;;;13.48;10.85;;;22.70;99.90;;;;;;5080016;28;20485;-77
2021/09/12 09:23:25;;;;;;;12.57;10.80;;;22.70;99.90;;;;;;5077426;28;20054;-77
2021/09/12 09:25:52;;;;;;;12.52;9.73;;;22.70;99.90;;;;;;5077881;28;20024;-77
2021/09/12 09:28:19;;;;;;;12.45;10.40;;;22.60;98.20;;;;;;5077037;28;20028;-77
2021/09/12 09:30:48;;;;;;;14.63;10.48;;;22.40;96.50;;;;;;5077894;28;20024;-77
2021/09/12 09:33:22;;;;;;;11.77;9.25;;;22.40;99.80;;;;;;5077759;28;20028;-78
2021/09/12 09:35:57;;;;;;;11.15;9.18;;;22.30;99.90;;;;;;5091968;28;20614;-77
2021/09/12 09:38:26;;;;;;;9.68;8.75;;;22.40;99.90;;;;;;5078214;28;20439;-77
2021/09/12 09:41:04;;;;;;;9.82;8.63;;;22.50;99.90;;;;;;5097094;28;20024;-77
2021/09/12 09:43:40;;;;;;;10.75;9.40;;;22.50;99.90;;;;;;5082898;28;20028;-77
2021/09/12 09:46:24;;;;;;;9.68;8.23;;;22.70;99.90;;;;;;5081844;28;20584;-77
2021/09/12 09:48:49;;;;;;;9.23;8.20;;;22.80;96.80;;;;;;5085210;28;20031;-77
2021/09/12 09:51:16;;;;;;;9.82;8.82;;;22.90;96.00;;;;;;5086036;28;20508;-77
2021/09/12 09:53:43;;;;;;;10.65;8.15;;;22.80;96.80;;;;;;5098712;28;20174;-77
2021/09/12 09:56:09;;;;;;;10.85;8.30;;;22.70;94.80;;;;;;5086315;28;20047;-77
2021/09/12 09:58:36;;;;;;;8.50;7.70;;;22.70;97.20;;;;;;5087224;28;20017;-77
2021/09/12 10:01:02;;;;;;;12.05;8.90;;;22.70;99.40;;;;;;5089500;28;20029;-77
2021/09/12 10:03:29;;;;;;;9.73;8.70;;;22.70;97.70;;;;;;5084022;28;20024;-78
2021/09/12 10:05:55;;;;;;;8.13;7.43;;;22.60;99.90;;;;;;5095752;28;20031;-78
2021/09/12 10:08:21;;;;;;;8.63;7.82;;;22.50;98.50;;;;;;5084450;28;20012;-78
2021/09/12 10:10:46;;;;;;;10.07;7.97;;;22.60;99.90;;;;;;5083985;28;20101;-78
2021/09/12 10:13:13;;;;;;;10.55;8.68;;;22.60;99.20;;;;;;5090544;28;20032;-78
2021/09/12 10:15:40;;;;;;;9.50;8.15;;;22.50;99.90;;;;;;5082823;28;20020;-77
2021/09/12 10:18:07;;;;;;;9.43;8.52;;;22.60;99.90;;;;;;5086028;28;20028;-78
2021/09/12 10:20:35;;;;;;;10.48;8.88;;;22.90;99.90;;;;;;5086659;28;20027;-77
2021/09/12 10:23:04;;;;;;;9.20;8.27;;;23.00;97.70;;;;;;5085425;28;20066;-78
2021/09/12 10:25:49;;;;;;;8.20;7.43;;;22.90;94.60;;;;;;5088525;28;20028;-77
2021/09/12 10:28:28;;;;;;;7.95;7.03;;;23.20;99.90;;;;;;5100309;28;20027;-78
2021/09/12 10:30:54;;;;;;;10.48;7.30;;;23.40;94.70;;;;;;5087696;28;20032;-78
2021/09/12 10:33:23;;;;;;;8.15;7.35;;;23.50;91.70;;;;;;5090212;28;20381;-78
2021/09/12 10:36:04;;;;;;;9.68;8.23;;;23.60;88.70;;;;;;5087134;28;20481;-78
2021/09/12 10:38:36;;;;;;;9.02;7.85;;;23.80;90.80;;;;;;5088719;28;20039;-78
2021/09/12 10:41:01;;;;;;;9.32;8.30;;;23.90;90.90;;;;;;5087579;28;20024;-78
2021/09/12 10:43:27;;;;;;;9.80;8.80;;;23.90;89.20;;;;;;5090991;28;20085;-78
2021/09/12 10:46:04;;;;;;;11.23;10.02;;;23.90;92.40;;;;;;5088535;28;20397;-78
2021/09/12 10:48:35;;;;;;;10.40;9.35;;;23.90;90.60;;;;;;5089653;28;20078;-78
2021/09/12 10:51:22;;;;;;;10.93;9.63;;;23.90;88.60;;;;;;5104345;28;20020;-78
2021/09/12 10:54:00;;;;;;;13.73;9.70;;;23.80;91.20;;;;;;5078624;28;20032;-78
2021/09/12 10:56:25;;;;;;;10.15;8.93;;;23.90;91.20;;;;;;5093186;28;20436;-78
2021/09/12 10:58:53;;;;;;;13.18;10.60;;;24.10;93.50;;;;;;5078390;28;20025;-78
2021/09/12 11:01:31;;;;;;;10.32;9.23;;;24.00;89.50;;;;;;5090151;28;20023;-78
2021/09/12 11:03:58;;;;;;;12.10;10.38;;;24.10;92.50;;;;;;5093974;28;20103;-78
2021/09/12 11:06:25;;;;;;;14.02;9.88;;;24.20;91.30;;;;;;5092229;28;20048;-78
2021/09/12 11:08:51;;;;;;;11.13;9.90;;;24.50;88.90;;;;;;5085846;28;20095;-79
2021/09/12 11:11:18;;;;;;;9.70;8.70;;;24.60;86.70;;;;;;5091415;28;20012;-79
2021/09/12 11:13:44;;;;;;;9.93;8.50;;;24.60;84.10;;;;;;5091622;28;20012;-79
2021/09/12 11:16:14;;;;;;;7.80;7.10;;;24.60;80.50;;;;;;5090154;28;20043;-78
2021/09/12 11:18:56;;;;;;;9.02;8.13;;;24.70;81.50;;;;;;5084833;28;20105;-79
2021/09/12 11:21:26;;;;;;;8.43;7.63;;;24.70;79.30;;;;;;5104663;28;20051;-78
2021/09/12 11:23:56;;;;;;;9.27;8.43;;;25.00;87.00;;;;;;5100061;28;20024;-79
2021/09/12 11:26:22;;;;;;;9.05;8.25;;;25.00;83.90;;;;;;5080600;28;20051;-78
2021/09/12 11:29:03;;;;;;;7.22;6.63;;;25.10;79.90;;;;;;5079638;28;20454;-78
2021/09/12 11:31:34;;;;;;;5.05;4.38;;;25.10;74.50;;;;;;5085129;28;20404;-78
2021/09/12 11:34:00;;;;;;;5.05;4.63;;;24.90;70.60;;;;;;5091574;28;20131;-78
2021/09/12 11:36:27;;;;;;;5.65;5.15;;;24.90;68.30;;;;;;5079315;28;20099;-79
2021/09/12 11:39:02;;;;;;;6.57;5.20;;;25.00;69.40;;;;;;5081729;28;20491;-79
2021/09/12 11:41:30;;;;;;;6.40;5.80;;;25.10;69.70;;;;;;5081300;28;20024;-79
2021/09/12 11:43:58;;;;;;;5.65;5.22;;;25.00;70.80;;;;;;5079866;28;20370;-79
2021/09/12 11:46:25;;;;;;;5.70;5.22;;;24.90;68.00;;;;;;5083112;28;20024;-80
2021/09/12 11:48:54;;;;;;;7.13;6.20;;;24.80;68.70;;;;;;5080922;28;20392;-79
2021/09/12 11:51:28;;;;;;;6.97;6.38;;;24.80;75.70;;;;;;5083373;28;20036;-80
2021/09/12 11:54:11;;;;;;;7.47;6.72;;;24.70;73.30;;;;;;5082761;28;20103;-79
2021/09/12 11:56:40;;;;;;;7.10;6.50;;;24.70;74.30;;;;;;5082610;28;20493;-79
2021/09/12 11:59:08;;;;;;;8.90;7.40;;;24.50;77.00;;;;;;5082764;28;20386;-79
2021/09/12 12:01:35;;;;;;;9.13;8.30;;;24.20;79.30;;;;;;5080971;28;20153;-79
2021/09/12 12:04:05;;;;;;;8.98;8.07;;;23.50;88.30;;;;;;5081985;28;20016;-78
2021/09/12 12:06:32;;;;;;;8.77;7.97;;;23.10;97.30;;;;;;5082876;28;20024;-79
2021/09/12 12:09:06;;;;;;;10.68;8.57;;;22.90;99.90;;;;;;5080417;28;20058;-78
2021/09/12 12:11:33;;;;;;;13.68;8.75;;;22.70;99.90;;;;;;5079315;28;20379;-79
2021/09/12 12:13:59;;;;;;;9.63;8.68;;;22.70;99.90;;;;;;5094024;28;20117;-79
2021/09/12 12:16:24;;;;;;;9.77;8.77;;;22.60;99.90;;;;;;5089221;28;20037;-79
2021/09/12 12:19:01;;;;;;;11.95;8.10;;;22.50;99.90;;;;;;5080199;28;20020;-79
2021/09/12 12:21:31;;;;;;;9.32;8.43;;;22.60;99.90;;;;;;5081191;28;20027;-80
2021/09/12 12:23:57;;;;;;;11.77;9.15;;;22.70;99.90;;;;;;5081018;28;20020;-77
2021/09/12 12:26:23;;;;;;;9.43;8.52;;;22.70;99.90;;;;;;5092482;28;20028;-77
2021/09/12 12:29:00;;;;;;;9.23;8.23;;;22.70;99.90;;;;;;5087186;28;20119;-77
2021/09/12 12:31:26;;;;;;;10.30;9.32;;;22.70;99.90;;;;;;5074879;28;20056;-76
2021/09/12 12:33:52;;;;;;;10.02;9.10;;;22.70;99.90;;;;;;5077127;28;20024;-77
2021/09/12 12:36:21;;;;;;;15.30;12.30;;;22.80;99.90;;;;;;5094607;28;20033;-77
2021/09/12 12:38:47;;;;;;;15.07;12.73;;;22.90;99.90;;;;;;5090214;28;20104;-77
2021/09/12 12:41:19;;;;;;;16.27;13.98;;;22.90;99.90;;;;;;5088034;28;20039;-77
2021/09/12 12:43:46;;;;;;;18.15;14.10;;;22.90;99.90;;;;;;5071425;28;20028;-77
2021/09/12 12:46:12;;;;;;;31.17;23.52;;;23.00;99.90;;;;;;5089259;28;20480;-77
2021/09/12 12:48:42;;;;;;;37.25;25.70;;;23.10;99.90;;;;;;5089030;28;20016;-77
2021/09/12 12:51:20;;;;;;;41.95;27.70;;;23.10;99.90;;;;;;5089105;28;20044;-77
2021/09/12 12:53:50;;;;;;;39.95;24.45;;;23.10;99.90;;;;;;5089078;28;20386;-76
2021/09/12 12:56:18;;;;;;;24.63;19.00;;;23.10;99.90;;;;;;5082896;28;20040;-78
2021/09/12 12:58:45;;;;;;;23.65;18.80;;;23.10;99.90;;;;;;5076514;28;20017;-78
2021/09/12 13:01:12;;;;;;;17.77;13.98;;;23.10;99.90;;;;;;5087548;28;20037;-79
2021/09/12 13:03:39;;;;;;;10.93;9.82;;;22.90;99.90;;;;;;5075627;28;20162;-79
2021/09/12 13:06:12;;;;;;;11.85;10.40;;;22.80;99.90;;;;;;5085542;28;20024;-79
2021/09/12 13:08:42;;;;;;;;;;;22.70;99.90;;;;;;5091034;28;20035;-80
2021/09/12 13:11:10;;;;;;;11.70;10.57;;;22.50;99.90;;;;;;5089524;28;19912;-79
2021/09/12 13:13:36;;;;;;;15.32;9.95;;;22.20;99.90;;;;;;5108464;28;20035;-79
2021/09/12 13:16:03;;;;;;;15.63;7.03;;;21.90;99.90;;;;;;5102198;28;20044;-79
2021/09/12 13:18:28;;;;;;;7.30;5.20;;;21.20;99.90;;;;;;5093714;28;20095;-80
2021/09/12 13:20:54;;;;;;;9.45;6.25;;;20.90;99.90;;;;;;5091432;28;20114;-80
2021/09/12 13:23:20;;;;;;;11.52;7.95;;;20.70;99.90;;;;;;5088748;28;20016;-79
2021/09/12 13:25:46;;;;;;;13.43;8.75;;;20.70;99.90;;;;;;5091725;28;20036;-80